Saline, United Kingdom
Current Conditions -  °F | °C
As of 11:20 AM on Thursday 18 Dec 2014 (Local Time) from EGPH Reporting Station
Moderate Rain Moderate Rain  
Wind Chill: 44°   Ceiling: 800
Heat Index: 48°   Visibility: 1.8mi
Dew Point: 46°   Wind: 9mph
Humidity: 93%   Direction: 300°WNW
Pressure: 29.29"   Gusts: NA
Location:  56.11°N, 3.57°W
Report Text: EGPH 181120Z 30008KT 270V350 3000 RADZ FEW004 BKN008 09/08 Q0992
Loading
Personal Weather Stations






























Interactive Weather Map New forecast layout! Learn more

10-Day Weather Forecast

Advertisements
Track Severe Weather on mobile